createdAt,value
2022-07-29T00:01:20.117Z,17.51
2022-07-29T00:06:22.995Z,17.94
2022-07-29T00:11:26.038Z,17.40
2022-07-29T00:16:30.342Z,17.41
2022-07-29T00:21:33.204Z,17.51
2022-07-29T00:26:36.179Z,17.34
2022-07-29T00:31:40.507Z,17.47
2022-07-29T00:36:43.589Z,17.53
2022-07-29T00:41:46.418Z,17.87
2022-07-29T00:46:50.737Z,17.84
2022-07-29T00:51:53.689Z,17.50
2022-07-29T00:56:57.002Z,17.73
2022-07-29T01:02:01.313Z,17.89
2022-07-29T01:07:04.979Z,18.01
2022-07-29T01:12:08.851Z,17.93
2022-07-29T01:17:18.491Z,17.95
2022-07-29T01:22:29.124Z,17.96
2022-07-29T01:28:08.936Z,17.67
2022-07-29T01:33:38.952Z,17.90
2022-07-29T01:38:46.566Z,17.89
2022-07-29T01:43:53.702Z,18.07
2022-07-29T01:49:02.354Z,17.85
2022-07-29T01:54:10.770Z,17.97
2022-07-29T01:59:13.885Z,17.91
2022-07-29T02:04:19.155Z,17.98
2022-07-29T02:09:34.331Z,17.87
2022-07-29T02:14:47.410Z,17.68
2022-07-29T02:19:52.343Z,17.55
2022-07-29T02:24:57.948Z,17.47
2022-07-29T02:30:03.027Z,17.61
2022-07-29T02:35:09.696Z,18.06
2022-07-29T02:40:13.856Z,18.07
2022-07-29T02:45:17.020Z,18.05
2022-07-29T02:50:24.799Z,17.89
2022-07-29T02:55:32.692Z,17.94
2022-07-29T03:00:39.480Z,17.87
2022-07-29T03:05:43.733Z,17.92
2022-07-29T03:10:48.095Z,17.89
2022-07-29T03:15:51.398Z,17.73
2022-07-29T03:20:56.261Z,17.74
2022-07-29T03:25:59.088Z,17.76
2022-07-29T03:31:01.924Z,17.84
2022-07-29T03:36:06.536Z,17.82
2022-07-29T03:41:12.249Z,17.56
2022-07-29T03:46:16.498Z,17.67
2022-07-29T03:51:33.322Z,17.59
2022-07-29T03:56:40.533Z,17.46
2022-07-29T04:01:43.962Z,17.30
2022-07-29T04:06:48.594Z,17.15
2022-07-29T04:12:01.465Z,17.10
2022-07-29T04:17:07.124Z,17.24
2022-07-29T04:22:11.348Z,17.31
2022-07-29T04:27:16.287Z,17.29
2022-07-29T04:32:19.169Z,17.37
2022-07-29T04:37:23.444Z,17.32
2022-07-29T04:42:27.785Z,17.34
2022-07-29T04:47:32.331Z,17.49
2022-07-29T04:52:36.677Z,17.59
2022-07-29T04:57:39.456Z,17.62
2022-07-29T05:02:42.434Z,17.68
2022-07-29T05:07:46.674Z,17.70
2022-07-29T05:12:50.619Z,17.74
2022-07-29T05:17:53.488Z,17.59
2022-07-29T05:22:58.524Z,17.80
2022-07-29T05:28:01.493Z,17.75
2022-07-29T05:33:04.372Z,17.80
2022-07-29T05:38:08.562Z,17.76
2022-07-29T05:43:11.397Z,17.72
2022-07-29T05:48:14.283Z,17.73
2022-07-29T05:53:19.118Z,17.81
2022-07-29T05:58:23.265Z,17.94
2022-07-29T06:03:26.032Z,18.11
2022-07-29T06:08:30.255Z,18.34
2022-07-29T06:13:33.273Z,18.28
2022-07-29T06:18:36.087Z,18.65
2022-07-29T06:23:41.080Z,18.65
2022-07-29T06:28:43.942Z,18.70
2022-07-29T06:33:46.745Z,18.63
2022-07-29T06:38:52.043Z,18.55
2022-07-29T06:43:55.341Z,18.88
2022-07-29T06:49:01.579Z,18.94
2022-07-29T06:54:06.625Z,19.25
2022-07-29T06:59:10.765Z,19.41
2022-07-29T07:04:14.562Z,19.92
2022-07-29T07:09:19.283Z,20.55
2022-07-29T07:14:30.366Z,20.58
2022-07-29T07:19:33.508Z,20.87
2022-07-29T07:24:38.873Z,21.21
2022-07-29T07:29:44.125Z,21.16
2022-07-29T07:34:47.293Z,20.75
2022-07-29T07:39:51.467Z,20.75
2022-07-29T07:45:12.658Z,20.51
2022-07-29T07:50:19.183Z,20.21
2022-07-29T07:55:23.821Z,20.42
2022-07-29T08:00:26.683Z,20.33
2022-07-29T08:05:29.560Z,20.55
2022-07-29T08:10:51.986Z,21.33
2022-07-29T08:15:59.955Z,22.49
2022-07-29T08:21:02.790Z,21.95
2022-07-29T08:26:11.241Z,23.04
2022-07-29T08:31:15.097Z,22.48
2022-07-29T08:36:18.090Z,22.45
2022-07-29T08:41:22.381Z,21.74
2022-07-29T08:46:25.921Z,21.88
2022-07-29T08:51:29.722Z,21.32
2022-07-29T08:56:34.351Z,21.93
2022-07-29T09:01:42.886Z,23.31
2022-07-29T09:06:50.281Z,24.55
2022-07-29T09:11:55.048Z,24.08
2022-07-29T09:16:58.538Z,23.94
2022-07-29T09:22:03.866Z,23.15
2022-07-29T09:27:20.822Z,23.35
2022-07-29T09:32:23.680Z,23.14
2022-07-29T09:37:30.512Z,22.82
2022-07-29T09:42:34.825Z,23.22
2022-07-29T09:47:45.864Z,23.44
2022-07-29T09:52:50.790Z,23.70
2022-07-29T09:57:55.378Z,24.80
2022-07-29T10:03:03.488Z,24.61
2022-07-29T10:08:07.158Z,25.53
2022-07-29T10:13:15.663Z,26.09
2022-07-29T10:18:20.895Z,26.07
2022-07-29T10:23:23.693Z,25.31
2022-07-29T10:28:28.322Z,26.27
2022-07-29T10:33:43.588Z,25.95
2022-07-29T10:38:51.421Z,25.81
2022-07-29T10:43:57.614Z,26.17
2022-07-29T10:49:08.070Z,25.15
2022-07-29T10:54:11.047Z,24.73
2022-07-29T10:59:36.118Z,24.37
2022-07-29T11:05:02.200Z,24.66
2022-07-29T11:10:31.028Z,26.07
2022-07-29T11:15:54.543Z,25.53
2022-07-29T11:20:58.256Z,25.24
2022-07-29T11:26:25.807Z,25.20
2022-07-29T11:31:39.293Z,25.44
2022-07-29T11:37:17.691Z,25.48
2022-07-29T11:42:42.012Z,25.47
2022-07-29T11:48:05.336Z,25.68
2022-07-29T11:53:22.247Z,25.53
2022-07-29T11:58:25.995Z,25.68
2022-07-29T12:03:35.157Z,26.10
2022-07-29T12:08:43.795Z,25.78
2022-07-29T12:13:46.984Z,25.63
2022-07-29T12:19:00.079Z,25.31
2022-07-29T12:24:08.795Z,25.34
2022-07-29T12:29:20.087Z,25.70
2022-07-29T12:34:38.022Z,24.52
2022-07-29T12:39:41.220Z,25.21
2022-07-29T12:44:48.632Z,25.91
2022-07-29T12:49:53.360Z,26.67
2022-07-29T12:54:56.199Z,26.19
2022-07-29T13:00:03.944Z,26.55
2022-07-29T13:05:10.197Z,26.57
2022-07-29T13:10:15.882Z,26.44
2022-07-29T13:15:20.509Z,26.34
2022-07-29T13:20:30.498Z,24.70
2022-07-29T13:25:35.346Z,24.73
2022-07-29T13:30:38.664Z,25.29
2022-07-29T13:35:49.519Z,25.76
2022-07-29T13:40:52.728Z,26.22
2022-07-29T13:45:55.700Z,26.25
2022-07-29T13:51:00.982Z,25.80
2022-07-29T13:56:03.884Z,26.16
2022-07-29T14:01:06.806Z,25.67
2022-07-29T14:06:11.149Z,25.65
2022-07-29T14:11:14.003Z,26.31
2022-07-29T14:16:18.991Z,26.85
2022-07-29T14:21:23.258Z,27.44
2022-07-29T14:26:28.570Z,26.63
2022-07-29T14:31:31.628Z,26.23
2022-07-29T14:36:35.983Z,26.03
2022-07-29T14:41:39.114Z,25.98
2022-07-29T14:46:42.292Z,26.14
2022-07-29T14:51:52.108Z,26.15
2022-07-29T14:56:57.929Z,26.43
2022-07-29T15:02:01.476Z,26.36
2022-07-29T15:07:06.185Z,27.01
2022-07-29T15:12:11.382Z,26.61
2022-07-29T15:17:14.327Z,26.55
2022-07-29T15:22:18.634Z,26.71
2022-07-29T15:27:21.516Z,26.79
2022-07-29T15:32:24.355Z,27.06
2022-07-29T15:37:29.315Z,27.21
2022-07-29T15:42:53.999Z,27.94
2022-07-29T15:47:56.855Z,27.92
2022-07-29T15:53:01.292Z,27.63
2022-07-29T15:58:04.348Z,27.19
2022-07-29T16:03:14.229Z,27.01
2022-07-29T16:08:18.371Z,27.22
2022-07-29T16:13:21.228Z,27.62
2022-07-29T16:18:29.816Z,27.59
2022-07-29T16:23:34.819Z,27.44
2022-07-29T16:28:37.660Z,27.49
2022-07-29T16:33:54.851Z,27.41
2022-07-29T16:39:00.291Z,27.11
2022-07-29T16:44:03.291Z,27.28
2022-07-29T16:49:06.320Z,27.06
2022-07-29T16:54:10.964Z,27.20
2022-07-29T16:59:13.829Z,26.78
2022-07-29T17:04:16.660Z,26.93
2022-07-29T17:09:21.081Z,26.72
2022-07-29T17:14:25.533Z,26.54
2022-07-29T17:19:28.388Z,26.32
2022-07-29T17:24:32.509Z,26.33
2022-07-29T17:29:35.961Z,26.24
2022-07-29T17:34:43.484Z,26.28
2022-07-29T17:39:48.315Z,26.37
2022-07-29T17:44:55.811Z,26.16
2022-07-29T17:49:59.782Z,26.09
2022-07-29T17:55:04.002Z,25.82
2022-07-29T18:00:08.595Z,25.65
2022-07-29T18:05:11.586Z,25.67
2022-07-29T18:10:15.802Z,25.49
2022-07-29T18:15:18.683Z,25.36
2022-07-29T18:20:21.545Z,25.42
2022-07-29T18:25:26.608Z,25.29
2022-07-29T18:30:29.596Z,25.13
2022-07-29T18:35:33.709Z,24.91
2022-07-29T18:40:39.951Z,24.49
2022-07-29T18:45:42.775Z,24.52
2022-07-29T18:50:45.577Z,24.29
2022-07-29T18:55:49.740Z,24.15
2022-07-29T19:00:52.610Z,23.93
2022-07-29T19:05:55.473Z,23.59
2022-07-29T19:11:02.452Z,23.19
2022-07-29T19:16:06.115Z,23.23
2022-07-29T19:21:09.107Z,23.28
2022-07-29T19:26:13.291Z,23.20
2022-07-29T19:31:23.706Z,22.78
2022-07-29T19:36:27.275Z,23.19
2022-07-29T19:41:31.650Z,23.17
2022-07-29T19:46:34.663Z,22.77
2022-07-29T19:51:37.647Z,22.63
2022-07-29T19:56:42.241Z,22.51
2022-07-29T20:01:45.261Z,22.36
2022-07-29T20:06:53.088Z,22.14
2022-07-29T20:11:58.313Z,21.97
2022-07-29T20:17:01.490Z,21.70
2022-07-29T20:22:05.885Z,21.80
2022-07-29T20:27:13.642Z,21.72
2022-07-29T20:32:19.373Z,21.61
2022-07-29T20:37:22.213Z,21.25
2022-07-29T20:42:26.361Z,21.19
2022-07-29T20:47:31.756Z,21.14
2022-07-29T20:52:34.747Z,21.05
2022-07-29T20:57:40.011Z,20.66
2022-07-29T21:02:43.057Z,20.65
2022-07-29T21:07:45.857Z,20.81
2022-07-29T21:12:49.974Z,20.83
2022-07-29T21:18:00.504Z,20.81
2022-07-29T21:23:03.338Z,20.71
2022-07-29T21:28:25.301Z,20.58
2022-07-29T21:33:30.407Z,20.62
2022-07-29T21:38:33.898Z,20.59
2022-07-29T21:43:38.216Z,20.61
2022-07-29T21:48:45.353Z,20.61
2022-07-29T21:53:48.245Z,20.50
2022-07-29T21:58:54.661Z,20.55
2022-07-29T22:03:58.033Z,20.51
2022-07-29T22:09:03.475Z,20.43
2022-07-29T22:14:08.023Z,20.44
2022-07-29T22:19:10.835Z,20.22
2022-07-29T22:24:13.610Z,20.13
2022-07-29T22:29:18.891Z,20.11
2022-07-29T22:34:21.729Z,20.04
2022-07-29T22:39:25.129Z,19.97
2022-07-29T22:44:29.264Z,20.01
2022-07-29T22:49:32.501Z,20.04
2022-07-29T22:54:35.285Z,19.93
2022-07-29T22:59:40.436Z,19.83
2022-07-29T23:04:43.847Z,19.72
2022-07-29T23:09:46.655Z,19.58
2022-07-29T23:14:51.932Z,19.47
2022-07-29T23:19:54.749Z,19.31
2022-07-29T23:24:57.505Z,19.22
2022-07-29T23:30:01.620Z,19.10
2022-07-29T23:35:06.878Z,18.94
2022-07-29T23:40:14.496Z,19.09
2022-07-29T23:45:19.008Z,19.08
2022-07-29T23:50:21.814Z,18.97
2022-07-29T23:55:36.710Z,18.89
